sensor_id;sensor_type;location;lat;lon;timestamp;P1;durP1;ratioP1;P2;durP2;ratioP2
11191;SDS011;5652;48.406;10.820;2024-01-15T00:00:17;22.73;;;15.05;;
11191;SDS011;5652;48.406;10.820;2024-01-15T00:02:44;23.20;;;14.88;;
11191;SDS011;5652;48.406;10.820;2024-01-15T00:05:11;22.45;;;15.27;;
11191;SDS011;5652;48.406;10.820;2024-01-15T00:07:40;24.55;;;15.20;;
11191;SDS011;5652;48.406;10.820;2024-01-15T00:10:07;21.63;;;13.55;;
11191;SDS011;5652;48.406;10.820;2024-01-15T00:12:34;24.23;;;15.60;;
11191;SDS011;5652;48.406;10.820;2024-01-15T00:15:01;21.40;;;14.57;;
11191;SDS011;5652;48.406;10.820;2024-01-15T00:17:28;22.50;;;15.20;;
11191;SDS011;5652;48.406;10.820;2024-01-15T00:19:55;23.65;;;15.63;;
11191;SDS011;5652;48.406;10.820;2024-01-15T00:22:23;24.10;;;14.85;;
11191;SDS011;5652;48.406;10.820;2024-01-15T00:24:52;23.60;;;15.13;;
11191;SDS011;5652;48.406;10.820;2024-01-15T00:27:19;23.70;;;15.70;;
11191;SDS011;5652;48.406;10.820;2024-01-15T00:29:46;25.38;;;16.52;;
11191;SDS011;5652;48.406;10.820;2024-01-15T00:32:13;25.55;;;16.38;;
11191;SDS011;5652;48.406;10.820;2024-01-15T00:34:40;24.77;;;16.17;;
11191;SDS011;5652;48.406;10.820;2024-01-15T00:37:07;24.52;;;16.50;;
11191;SDS011;5652;48.406;10.820;2024-01-15T00:39:34;24.10;;;16.17;;
11191;SDS011;5652;48.406;10.820;2024-01-15T00:42:03;24.98;;;14.90;;
11191;SDS011;5652;48.406;10.820;2024-01-15T00:44:30;23.03;;;15.07;;
11191;SDS011;5652;48.406;10.820;2024-01-15T00:46:57;21.98;;;14.27;;
11191;SDS011;5652;48.406;10.820;2024-01-15T00:49:24;24.55;;;16.20;;
11191;SDS011;5652;48.406;10.820;2024-01-15T00:51:51;23.10;;;15.60;;
11191;SDS011;5652;48.406;10.820;2024-01-15T00:54:18;22.13;;;14.43;;
11191;SDS011;5652;48.406;10.820;2024-01-15T00:56:46;23.77;;;14.97;;
11191;SDS011;5652;48.406;10.820;2024-01-15T00:59:14;21.67;;;14.65;;
11191;SDS011;5652;48.406;10.820;2024-01-15T01:01:41;22.67;;;14.80;;
11191;SDS011;5652;48.406;10.820;2024-01-15T01:04:09;20.48;;;13.88;;
11191;SDS011;5652;48.406;10.820;2024-01-15T01:06:36;22.92;;;14.68;;
11191;SDS011;5652;48.406;10.820;2024-01-15T01:09:03;22.95;;;15.55;;
11191;SDS011;5652;48.406;10.820;2024-01-15T01:11:30;21.90;;;14.90;;
11191;SDS011;5652;48.406;10.820;2024-01-15T01:13:57;22.52;;;15.27;;
11191;SDS011;5652;48.406;10.820;2024-01-15T01:16:27;23.90;;;15.15;;
11191;SDS011;5652;48.406;10.820;2024-01-15T01:18:55;24.95;;;16.45;;
11191;SDS011;5652;48.406;10.820;2024-01-15T01:21:22;22.55;;;15.70;;
11191;SDS011;5652;48.406;10.820;2024-01-15T01:23:49;22.83;;;15.40;;
11191;SDS011;5652;48.406;10.820;2024-01-15T01:26:16;24.02;;;15.98;;
11191;SDS011;5652;48.406;10.820;2024-01-15T01:28:44;24.35;;;15.85;;
11191;SDS011;5652;48.406;10.820;2024-01-15T01:31:11;23.90;;;15.23;;
11191;SDS011;5652;48.406;10.820;2024-01-15T01:33:39;22.42;;;14.52;;
11191;SDS011;5652;48.406;10.820;2024-01-15T01:36:07;21.98;;;14.18;;
11191;SDS011;5652;48.406;10.820;2024-01-15T01:38:34;22.40;;;14.43;;
11191;SDS011;5652;48.406;10.820;2024-01-15T01:41:02;22.38;;;14.52;;
11191;SDS011;5652;48.406;10.820;2024-01-15T01:43:29;19.92;;;12.77;;
11191;SDS011;5652;48.406;10.820;2024-01-15T01:45:56;18.15;;;11.98;;
11191;SDS011;5652;48.406;10.820;2024-01-15T01:48:24;17.48;;;11.55;;
11191;SDS011;5652;48.406;10.820;2024-01-15T01:50:53;17.60;;;11.40;;
11191;SDS011;5652;48.406;10.820;2024-01-15T01:53:21;16.13;;;10.77;;
11191;SDS011;5652;48.406;10.820;2024-01-15T01:55:48;16.23;;;10.57;;
11191;SDS011;5652;48.406;10.820;2024-01-15T01:58:16;16.33;;;10.50;;
11191;SDS011;5652;48.406;10.820;2024-01-15T02:00:43;15.93;;;9.85;;
11191;SDS011;5652;48.406;10.820;2024-01-15T02:03:10;15.13;;;9.15;;
11191;SDS011;5652;48.406;10.820;2024-01-15T02:05:37;15.00;;;9.68;;
11191;SDS011;5652;48.406;10.820;2024-01-15T02:08:07;15.40;;;10.23;;
11191;SDS011;5652;48.406;10.820;2024-01-15T02:10:35;15.00;;;9.63;;
11191;SDS011;5652;48.406;10.820;2024-01-15T02:13:02;13.75;;;9.30;;
11191;SDS011;5652;48.406;10.820;2024-01-15T02:15:29;13.35;;;9.07;;
11191;SDS011;5652;48.406;10.820;2024-01-15T02:17:57;14.25;;;9.02;;
11191;SDS011;5652;48.406;10.820;2024-01-15T02:20:24;15.52;;;8.60;;
11191;SDS011;5652;48.406;10.820;2024-01-15T02:22:51;13.75;;;8.60;;
11191;SDS011;5652;48.406;10.820;2024-01-15T02:25:20;14.27;;;9.32;;
11191;SDS011;5652;48.406;10.820;2024-01-15T02:27:47;13.93;;;8.80;;
11191;SDS011;5652;48.406;10.820;2024-01-15T02:30:14;14.77;;;9.45;;
11191;SDS011;5652;48.406;10.820;2024-01-15T02:32:42;14.57;;;9.73;;
11191;SDS011;5652;48.406;10.820;2024-01-15T02:35:09;13.63;;;9.27;;
11191;SDS011;5652;48.406;10.820;2024-01-15T02:37:36;13.90;;;9.33;;
11191;SDS011;5652;48.406;10.820;2024-01-15T02:40:04;14.18;;;9.00;;
11191;SDS011;5652;48.406;10.820;2024-01-15T02:42:32;14.57;;;9.07;;
11191;SDS011;5652;48.406;10.820;2024-01-15T02:44:59;14.63;;;9.32;;
11191;SDS011;5652;48.406;10.820;2024-01-15T02:47:26;13.90;;;9.50;;
11191;SDS011;5652;48.406;10.820;2024-01-15T02:49:53;14.77;;;9.27;;
11191;SDS011;5652;48.406;10.820;2024-01-15T02:52:20;12.77;;;8.77;;
11191;SDS011;5652;48.406;10.820;2024-01-15T02:54:47;14.93;;;9.23;;
11191;SDS011;5652;48.406;10.820;2024-01-15T02:57:15;14.18;;;9.35;;
11191;SDS011;5652;48.406;10.820;2024-01-15T02:59:43;15.23;;;9.70;;
11191;SDS011;5652;48.406;10.820;2024-01-15T03:02:10;15.40;;;9.75;;
11191;SDS011;5652;48.406;10.820;2024-01-15T03:04:37;14.27;;;9.40;;
11191;SDS011;5652;48.406;10.820;2024-01-15T03:07:04;15.47;;;9.57;;
11191;SDS011;5652;48.406;10.820;2024-01-15T03:09:31;16.92;;;10.55;;
11191;SDS011;5652;48.406;10.820;2024-01-15T03:11:58;12.93;;;8.73;;
11191;SDS011;5652;48.406;10.820;2024-01-15T03:14:26;15.63;;;9.88;;
11191;SDS011;5652;48.406;10.820;2024-01-15T03:16:54;15.95;;;9.80;;
11191;SDS011;5652;48.406;10.820;2024-01-15T03:19:21;14.45;;;9.93;;
11191;SDS011;5652;48.406;10.820;2024-01-15T03:21:48;14.33;;;8.40;;
11191;SDS011;5652;48.406;10.820;2024-01-15T03:24:15;13.75;;;9.65;;
11191;SDS011;5652;48.406;10.820;2024-01-15T03:26:42;15.00;;;9.90;;
11191;SDS011;5652;48.406;10.820;2024-01-15T03:29:09;13.77;;;9.07;;
11191;SDS011;5652;48.406;10.820;2024-01-15T03:31:36;13.73;;;9.50;;
11191;SDS011;5652;48.406;10.820;2024-01-15T03:34:04;14.07;;;8.93;;
11191;SDS011;5652;48.406;10.820;2024-01-15T03:36:31;15.70;;;9.77;;
11191;SDS011;5652;48.406;10.820;2024-01-15T03:38:58;14.88;;;9.60;;
11191;SDS011;5652;48.406;10.820;2024-01-15T03:41:25;14.73;;;9.57;;
11191;SDS011;5652;48.406;10.820;2024-01-15T03:43:53;13.87;;;9.00;;
11191;SDS011;5652;48.406;10.820;2024-01-15T03:46:20;14.73;;;9.98;;
11191;SDS011;5652;48.406;10.820;2024-01-15T03:48:47;14.15;;;8.82;;
11191;SDS011;5652;48.406;10.820;2024-01-15T03:51:16;14.27;;;9.48;;
11191;SDS011;5652;48.406;10.820;2024-01-15T03:53:43;14.73;;;9.40;;
11191;SDS011;5652;48.406;10.820;2024-01-15T03:56:11;14.10;;;9.27;;
11191;SDS011;5652;48.406;10.820;2024-01-15T03:58:38;14.25;;;9.35;;
11191;SDS011;5652;48.406;10.820;2024-01-15T04:01:07;13.82;;;8.93;;
11191;SDS011;5652;48.406;10.820;2024-01-15T04:03:34;13.80;;;8.80;;
11191;SDS011;5652;48.406;10.820;2024-01-15T04:06:02;13.85;;;9.02;;
11191;SDS011;5652;48.406;10.820;2024-01-15T04:08:30;14.70;;;9.23;;
11191;SDS011;5652;48.406;10.820;2024-01-15T04:10:57;12.85;;;7.95;;
11191;SDS011;5652;48.406;10.820;2024-01-15T04:13:24;12.63;;;8.43;;
11191;SDS011;5652;48.406;10.820;2024-01-15T04:15:51;11.47;;;8.27;;
11191;SDS011;5652;48.406;10.820;2024-01-15T04:18:18;12.50;;;8.82;;
11191;SDS011;5652;48.406;10.820;2024-01-15T04:20:45;13.00;;;8.85;;
11191;SDS011;5652;48.406;10.820;2024-01-15T04:23:12;12.18;;;8.40;;
11191;SDS011;5652;48.406;10.820;2024-01-15T04:25:41;12.98;;;8.70;;
11191;SDS011;5652;48.406;10.820;2024-01-15T04:28:08;14.23;;;8.90;;
11191;SDS011;5652;48.406;10.820;2024-01-15T04:30:35;12.30;;;8.68;;
11191;SDS011;5652;48.406;10.820;2024-01-15T04:33:02;12.10;;;7.97;;
11191;SDS011;5652;48.406;10.820;2024-01-15T04:35:30;12.23;;;8.60;;
11191;SDS011;5652;48.406;10.820;2024-01-15T04:37:57;12.47;;;7.73;;
11191;SDS011;5652;48.406;10.820;2024-01-15T04:40:24;12.23;;;8.20;;
11191;SDS011;5652;48.406;10.820;2024-01-15T04:42:54;11.98;;;8.13;;
11191;SDS011;5652;48.406;10.820;2024-01-15T04:45:21;11.15;;;7.65;;
11191;SDS011;5652;48.406;10.820;2024-01-15T04:47:53;13.00;;;8.02;;
11191;SDS011;5652;48.406;10.820;2024-01-15T04:50:20;12.48;;;7.53;;
11191;SDS011;5652;48.406;10.820;2024-01-15T04:52:47;11.63;;;7.80;;
11191;SDS011;5652;48.406;10.820;2024-01-15T04:55:14;9.82;;;6.55;;
11191;SDS011;5652;48.406;10.820;2024-01-15T04:57:42;10.95;;;7.35;;
11191;SDS011;5652;48.406;10.820;2024-01-15T05:00:11;10.18;;;6.72;;
11191;SDS011;5652;48.406;10.820;2024-01-15T05:02:39;9.55;;;6.32;;
11191;SDS011;5652;48.406;10.820;2024-01-15T05:05:06;9.60;;;6.60;;
11191;SDS011;5652;48.406;10.820;2024-01-15T05:07:33;9.60;;;6.50;;
11191;SDS011;5652;48.406;10.820;2024-01-15T05:10:00;9.23;;;6.38;;
11191;SDS011;5652;48.406;10.820;2024-01-15T05:12:27;10.25;;;6.82;;
11191;SDS011;5652;48.406;10.820;2024-01-15T05:14:54;9.35;;;6.47;;
11191;SDS011;5652;48.406;10.820;2024-01-15T05:17:23;9.80;;;6.95;;
11191;SDS011;5652;48.406;10.820;2024-01-15T05:19:50;9.73;;;6.85;;
11191;SDS011;5652;48.406;10.820;2024-01-15T05:22:17;11.07;;;7.60;;
11191;SDS011;5652;48.406;10.820;2024-01-15T05:24:46;10.90;;;7.03;;
11191;SDS011;5652;48.406;10.820;2024-01-15T05:27:13;12.43;;;7.75;;
11191;SDS011;5652;48.406;10.820;2024-01-15T05:29:41;9.98;;;6.80;;
11191;SDS011;5652;48.406;10.820;2024-01-15T05:32:08;9.40;;;6.50;;
11191;SDS011;5652;48.406;10.820;2024-01-15T05:34:36;10.40;;;7.20;;
11191;SDS011;5652;48.406;10.820;2024-01-15T05:37:03;9.38;;;6.22;;
11191;SDS011;5652;48.406;10.820;2024-01-15T05:39:30;10.48;;;6.65;;
11191;SDS011;5652;48.406;10.820;2024-01-15T05:41:58;10.18;;;6.68;;
11191;SDS011;5652;48.406;10.820;2024-01-15T05:44:25;9.82;;;6.68;;
11191;SDS011;5652;48.406;10.820;2024-01-15T05:46:53;10.23;;;6.18;;
11191;SDS011;5652;48.406;10.820;2024-01-15T05:49:20;9.57;;;6.32;;
11191;SDS011;5652;48.406;10.820;2024-01-15T05:51:49;8.68;;;5.82;;
11191;SDS011;5652;48.406;10.820;2024-01-15T05:54:17;8.48;;;5.65;;
11191;SDS011;5652;48.406;10.820;2024-01-15T05:56:45;8.85;;;5.95;;
11191;SDS011;5652;48.406;10.820;2024-01-15T05:59:12;9.82;;;6.20;;
11191;SDS011;5652;48.406;10.820;2024-01-15T06:01:39;7.93;;;5.55;;
11191;SDS011;5652;48.406;10.820;2024-01-15T06:04:06;8.27;;;5.82;;
11191;SDS011;5652;48.406;10.820;2024-01-15T06:06:33;8.23;;;5.60;;
11191;SDS011;5652;48.406;10.820;2024-01-15T06:09:02;10.35;;;5.88;;
11191;SDS011;5652;48.406;10.820;2024-01-15T06:11:31;8.00;;;5.65;;
11191;SDS011;5652;48.406;10.820;2024-01-15T06:13:58;7.70;;;5.30;;
11191;SDS011;5652;48.406;10.820;2024-01-15T06:16:25;8.18;;;5.25;;
11191;SDS011;5652;48.406;10.820;2024-01-15T06:18:53;7.50;;;5.30;;
11191;SDS011;5652;48.406;10.820;2024-01-15T06:21:20;7.68;;;5.10;;
11191;SDS011;5652;48.406;10.820;2024-01-15T06:23:47;6.82;;;4.50;;
11191;SDS011;5652;48.406;10.820;2024-01-15T06:26:15;6.43;;;4.45;;
11191;SDS011;5652;48.406;10.820;2024-01-15T06:28:42;6.80;;;4.72;;
11191;SDS011;5652;48.406;10.820;2024-01-15T06:31:09;6.93;;;4.63;;
11191;SDS011;5652;48.406;10.820;2024-01-15T06:33:37;6.20;;;4.45;;
11191;SDS011;5652;48.406;10.820;2024-01-15T06:36:04;6.60;;;4.50;;
11191;SDS011;5652;48.406;10.820;2024-01-15T06:38:31;5.90;;;4.07;;
11191;SDS011;5652;48.406;10.820;2024-01-15T06:40:59;5.50;;;4.15;;
11191;SDS011;5652;48.406;10.820;2024-01-15T06:43:27;4.90;;;3.60;;
11191;SDS011;5652;48.406;10.820;2024-01-15T06:45:54;6.07;;;4.20;;
11191;SDS011;5652;48.406;10.820;2024-01-15T06:48:21;6.32;;;4.10;;
11191;SDS011;5652;48.406;10.820;2024-01-15T06:50:49;5.63;;;3.60;;
11191;SDS011;5652;48.406;10.820;2024-01-15T06:53:16;5.07;;;3.58;;
11191;SDS011;5652;48.406;10.820;2024-01-15T06:55:43;6.40;;;4.32;;
11191;SDS011;5652;48.406;10.820;2024-01-15T06:58:10;6.28;;;3.83;;
11191;SDS011;5652;48.406;10.820;2024-01-15T07:00:38;5.82;;;4.10;;
11191;SDS011;5652;48.406;10.820;2024-01-15T07:03:06;5.85;;;4.00;;
11191;SDS011;5652;48.406;10.820;2024-01-15T07:05:33;5.65;;;3.90;;
11191;SDS011;5652;48.406;10.820;2024-01-15T07:08:02;5.65;;;3.70;;
11191;SDS011;5652;48.406;10.820;2024-01-15T07:10:29;5.20;;;3.83;;
11191;SDS011;5652;48.406;10.820;2024-01-15T07:12:56;5.80;;;3.72;;
11191;SDS011;5652;48.406;10.820;2024-01-15T07:15:24;6.33;;;4.30;;
11191;SDS011;5652;48.406;10.820;2024-01-15T07:17:52;6.60;;;4.03;;
11191;SDS011;5652;48.406;10.820;2024-01-15T07:20:19;5.63;;;3.85;;
11191;SDS011;5652;48.406;10.820;2024-01-15T07:22:46;6.67;;;4.43;;
11191;SDS011;5652;48.406;10.820;2024-01-15T07:25:13;6.10;;;3.83;;
11191;SDS011;5652;48.406;10.820;2024-01-15T07:27:42;7.13;;;4.45;;
11191;SDS011;5652;48.406;10.820;2024-01-15T07:30:11;6.75;;;4.53;;
11191;SDS011;5652;48.406;10.820;2024-01-15T07:32:38;6.37;;;4.13;;
11191;SDS011;5652;48.406;10.820;2024-01-15T07:35:08;6.22;;;3.97;;
11191;SDS011;5652;48.406;10.820;2024-01-15T07:37:35;6.05;;;4.22;;
11191;SDS011;5652;48.406;10.820;2024-01-15T07:40:02;6.88;;;4.32;;
11191;SDS011;5652;48.406;10.820;2024-01-15T07:42:31;6.63;;;4.28;;
11191;SDS011;5652;48.406;10.820;2024-01-15T07:44:59;4.78;;;3.40;;
11191;SDS011;5652;48.406;10.820;2024-01-15T07:47:26;4.43;;;3.30;;
11191;SDS011;5652;48.406;10.820;2024-01-15T07:49:53;5.72;;;3.67;;
11191;SDS011;5652;48.406;10.820;2024-01-15T07:52:23;4.68;;;3.45;;
11191;SDS011;5652;48.406;10.820;2024-01-15T07:54:50;4.60;;;3.33;;
11191;SDS011;5652;48.406;10.820;2024-01-15T07:57:17;4.32;;;3.53;;
11191;SDS011;5652;48.406;10.820;2024-01-15T07:59:44;4.93;;;3.25;;
11191;SDS011;5652;48.406;10.820;2024-01-15T08:02:11;5.25;;;3.08;;
11191;SDS011;5652;48.406;10.820;2024-01-15T08:04:38;4.55;;;3.28;;
11191;SDS011;5652;48.406;10.820;2024-01-15T08:07:05;4.90;;;3.50;;
11191;SDS011;5652;48.406;10.820;2024-01-15T08:09:34;4.82;;;3.20;;
11191;SDS011;5652;48.406;10.820;2024-01-15T08:12:01;5.63;;;3.70;;
11191;SDS011;5652;48.406;10.820;2024-01-15T08:14:31;4.35;;;3.22;;
11191;SDS011;5652;48.406;10.820;2024-01-15T08:16:58;5.10;;;3.33;;
11191;SDS011;5652;48.406;10.820;2024-01-15T08:19:26;5.68;;;3.55;;
11191;SDS011;5652;48.406;10.820;2024-01-15T08:21:53;5.00;;;3.55;;
11191;SDS011;5652;48.406;10.820;2024-01-15T08:24:20;6.20;;;4.05;;
11191;SDS011;5652;48.406;10.820;2024-01-15T08:26:49;6.32;;;3.63;;
11191;SDS011;5652;48.406;10.820;2024-01-15T08:29:16;4.78;;;3.30;;
11191;SDS011;5652;48.406;10.820;2024-01-15T08:31:45;6.43;;;3.67;;
11191;SDS011;5652;48.406;10.820;2024-01-15T08:34:12;5.63;;;4.00;;
11191;SDS011;5652;48.406;10.820;2024-01-15T08:36:39;6.28;;;4.03;;
11191;SDS011;5652;48.406;10.820;2024-01-15T08:39:06;5.70;;;4.00;;
11191;SDS011;5652;48.406;10.820;2024-01-15T08:41:34;5.32;;;3.60;;
11191;SDS011;5652;48.406;10.820;2024-01-15T08:44:03;5.05;;;3.40;;
11191;SDS011;5652;48.406;10.820;2024-01-15T08:46:33;5.53;;;4.28;;
11191;SDS011;5652;48.406;10.820;2024-01-15T08:49:00;6.65;;;4.25;;
11191;SDS011;5652;48.406;10.820;2024-01-15T08:51:28;5.07;;;3.47;;
11191;SDS011;5652;48.406;10.820;2024-01-15T08:53:56;5.15;;;3.38;;
11191;SDS011;5652;48.406;10.820;2024-01-15T08:56:23;5.15;;;3.20;;
11191;SDS011;5652;48.406;10.820;2024-01-15T08:58:52;4.65;;;3.40;;
11191;SDS011;5652;48.406;10.820;2024-01-15T09:01:20;5.30;;;3.38;;
11191;SDS011;5652;48.406;10.820;2024-01-15T09:03:48;4.90;;;3.40;;
11191;SDS011;5652;48.406;10.820;2024-01-15T09:06:15;4.70;;;3.53;;
11191;SDS011;5652;48.406;10.820;2024-01-15T09:08:42;5.10;;;3.33;;
11191;SDS011;5652;48.406;10.820;2024-01-15T09:11:09;5.03;;;3.50;;
11191;SDS011;5652;48.406;10.820;2024-01-15T09:13:37;5.28;;;3.45;;
11191;SDS011;5652;48.406;10.820;2024-01-15T09:16:04;4.95;;;3.50;;
11191;SDS011;5652;48.406;10.820;2024-01-15T09:18:33;4.97;;;3.47;;
11191;SDS011;5652;48.406;10.820;2024-01-15T09:21:00;4.95;;;3.10;;
11191;SDS011;5652;48.406;10.820;2024-01-15T09:23:28;4.90;;;3.33;;
11191;SDS011;5652;48.406;10.820;2024-01-15T09:25:55;5.05;;;3.20;;
11191;SDS011;5652;48.406;10.820;2024-01-15T09:28:22;4.90;;;3.07;;
11191;SDS011;5652;48.406;10.820;2024-01-15T09:30:50;4.25;;;2.70;;
11191;SDS011;5652;48.406;10.820;2024-01-15T09:33:17;5.13;;;3.20;;
11191;SDS011;5652;48.406;10.820;2024-01-15T09:35:45;4.80;;;3.20;;
11191;SDS011;5652;48.406;10.820;2024-01-15T09:38:12;4.63;;;2.70;;
11191;SDS011;5652;48.406;10.820;2024-01-15T09:40:40;3.78;;;2.78;;
11191;SDS011;5652;48.406;10.820;2024-01-15T09:43:10;4.40;;;2.75;;
11191;SDS011;5652;48.406;10.820;2024-01-15T09:45:37;2.72;;;1.98;;
11191;SDS011;5652;48.406;10.820;2024-01-15T09:48:04;2.88;;;2.25;;
11191;SDS011;5652;48.406;10.820;2024-01-15T09:50:32;2.92;;;2.20;;
11191;SDS011;5652;48.406;10.820;2024-01-15T09:53:00;3.47;;;1.90;;
11191;SDS011;5652;48.406;10.820;2024-01-15T09:55:28;3.20;;;2.30;;
11191;SDS011;5652;48.406;10.820;2024-01-15T09:57:55;3.33;;;2.10;;
11191;SDS011;5652;48.406;10.820;2024-01-15T10:00:23;4.00;;;2.40;;
11191;SDS011;5652;48.406;10.820;2024-01-15T10:02:50;3.75;;;2.55;;
11191;SDS011;5652;48.406;10.820;2024-01-15T10:05:17;2.60;;;1.90;;
11191;SDS011;5652;48.406;10.820;2024-01-15T10:07:44;2.20;;;1.80;;
11191;SDS011;5652;48.406;10.820;2024-01-15T10:10:14;3.00;;;1.60;;
11191;SDS011;5652;48.406;10.820;2024-01-15T10:12:42;3.53;;;1.90;;
11191;SDS011;5652;48.406;10.820;2024-01-15T10:15:09;1.90;;;1.63;;
11191;SDS011;5652;48.406;10.820;2024-01-15T10:17:37;2.40;;;1.50;;
11191;SDS011;5652;48.406;10.820;2024-01-15T10:20:07;1.90;;;1.60;;
11191;SDS011;5652;48.406;10.820;2024-01-15T10:22:34;2.37;;;1.80;;
11191;SDS011;5652;48.406;10.820;2024-01-15T10:25:03;3.50;;;1.70;;
11191;SDS011;5652;48.406;10.820;2024-01-15T10:27:31;2.17;;;1.60;;
11191;SDS011;5652;48.406;10.820;2024-01-15T10:29:59;2.63;;;1.77;;
11191;SDS011;5652;48.406;10.820;2024-01-15T10:32:27;1.98;;;1.52;;
11191;SDS011;5652;48.406;10.820;2024-01-15T10:34:54;2.50;;;1.60;;
11191;SDS011;5652;48.406;10.820;2024-01-15T10:37:23;2.13;;;1.33;;
11191;SDS011;5652;48.406;10.820;2024-01-15T10:39:50;1.88;;;1.40;;
11191;SDS011;5652;48.406;10.820;2024-01-15T10:42:17;2.20;;;1.70;;
11191;SDS011;5652;48.406;10.820;2024-01-15T10:44:46;2.85;;;1.50;;
11191;SDS011;5652;48.406;10.820;2024-01-15T10:47:13;2.40;;;1.70;;
11191;SDS011;5652;48.406;10.820;2024-01-15T10:49:40;2.80;;;1.60;;
11191;SDS011;5652;48.406;10.820;2024-01-15T10:52:08;2.17;;;1.50;;
11191;SDS011;5652;48.406;10.820;2024-01-15T10:54:35;2.83;;;1.90;;
11191;SDS011;5652;48.406;10.820;2024-01-15T10:57:04;4.65;;;1.80;;
11191;SDS011;5652;48.406;10.820;2024-01-15T10:59:31;2.42;;;1.90;;
11191;SDS011;5652;48.406;10.820;2024-01-15T11:02:00;2.95;;;1.85;;
11191;SDS011;5652;48.406;10.820;2024-01-15T11:04:28;3.05;;;1.92;;
11191;SDS011;5652;48.406;10.820;2024-01-15T11:06:55;2.03;;;1.70;;
11191;SDS011;5652;48.406;10.820;2024-01-15T11:09:22;4.07;;;1.88;;
11191;SDS011;5652;48.406;10.820;2024-01-15T11:11:52;2.67;;;2.08;;
11191;SDS011;5652;48.406;10.820;2024-01-15T11:14:34;2.35;;;1.90;;
11191;SDS011;5652;48.406;10.820;2024-01-15T11:17:03;2.28;;;1.70;;
11191;SDS011;5652;48.406;10.820;2024-01-15T11:19:37;2.30;;;1.77;;
11191;SDS011;5652;48.406;10.820;2024-01-15T11:22:06;2.80;;;1.80;;
11191;SDS011;5652;48.406;10.820;2024-01-15T11:24:34;3.17;;;1.77;;
11191;SDS011;5652;48.406;10.820;2024-01-15T11:27:01;3.33;;;2.10;;
11191;SDS011;5652;48.406;10.820;2024-01-15T11:29:29;2.17;;;1.90;;
11191;SDS011;5652;48.406;10.820;2024-01-15T11:31:57;2.67;;;1.80;;
11191;SDS011;5652;48.406;10.820;2024-01-15T11:37:07;3.58;;;1.90;;
11191;SDS011;5652;48.406;10.820;2024-01-15T11:39:40;2.63;;;2.10;;
11191;SDS011;5652;48.406;10.820;2024-01-15T11:42:09;3.83;;;2.10;;
11191;SDS011;5652;48.406;10.820;2024-01-15T11:44:37;2.80;;;1.90;;
11191;SDS011;5652;48.406;10.820;2024-01-15T11:47:05;2.53;;;2.00;;
11191;SDS011;5652;48.406;10.820;2024-01-15T11:49:37;3.00;;;2.03;;
11191;SDS011;5652;48.406;10.820;2024-01-15T11:52:13;3.65;;;2.25;;
11191;SDS011;5652;48.406;10.820;2024-01-15T11:54:44;3.30;;;2.65;;
11191;SDS011;5652;48.406;10.820;2024-01-15T11:57:17;2.80;;;1.95;;
11191;SDS011;5652;48.406;10.820;2024-01-15T11:59:46;2.80;;;2.20;;
11191;SDS011;5652;48.406;10.820;2024-01-15T12:02:14;3.10;;;2.50;;
11191;SDS011;5652;48.406;10.820;2024-01-15T12:04:41;3.00;;;2.30;;
11191;SDS011;5652;48.406;10.820;2024-01-15T12:07:08;3.65;;;2.40;;
11191;SDS011;5652;48.406;10.820;2024-01-15T12:09:37;2.40;;;2.20;;
11191;SDS011;5652;48.406;10.820;2024-01-15T12:12:09;3.90;;;2.90;;
11191;SDS011;5652;48.406;10.820;2024-01-15T12:14:38;4.60;;;2.70;;
11191;SDS011;5652;48.406;10.820;2024-01-15T12:17:06;2.97;;;2.35;;
11191;SDS011;5652;48.406;10.820;2024-01-15T12:19:33;4.43;;;3.17;;
11191;SDS011;5652;48.406;10.820;2024-01-15T12:22:01;4.60;;;2.60;;
11191;SDS011;5652;48.406;10.820;2024-01-15T12:24:28;4.90;;;2.88;;
11191;SDS011;5652;48.406;10.820;2024-01-15T12:26:57;4.07;;;2.38;;
11191;SDS011;5652;48.406;10.820;2024-01-15T12:29:25;3.80;;;2.85;;
11191;SDS011;5652;48.406;10.820;2024-01-15T12:31:52;3.80;;;2.75;;
11191;SDS011;5652;48.406;10.820;2024-01-15T12:34:20;4.43;;;2.72;;
11191;SDS011;5652;48.406;10.820;2024-01-15T12:36:47;3.70;;;2.72;;
11191;SDS011;5652;48.406;10.820;2024-01-15T12:39:15;3.33;;;2.40;;
11191;SDS011;5652;48.406;10.820;2024-01-15T12:41:42;3.60;;;2.72;;
11191;SDS011;5652;48.406;10.820;2024-01-15T12:44:10;3.70;;;2.65;;
11191;SDS011;5652;48.406;10.820;2024-01-15T12:46:38;5.18;;;3.00;;
11191;SDS011;5652;48.406;10.820;2024-01-15T12:49:05;3.60;;;2.40;;
11191;SDS011;5652;48.406;10.820;2024-01-15T12:51:34;3.55;;;2.58;;
11191;SDS011;5652;48.406;10.820;2024-01-15T12:54:01;3.70;;;2.60;;
11191;SDS011;5652;48.406;10.820;2024-01-15T12:56:28;3.88;;;2.90;;
11191;SDS011;5652;48.406;10.820;2024-01-15T12:58:55;4.07;;;2.95;;
11191;SDS011;5652;48.406;10.820;2024-01-15T13:01:23;4.50;;;2.95;;
11191;SDS011;5652;48.406;10.820;2024-01-15T13:03:51;5.30;;;3.60;;
11191;SDS011;5652;48.406;10.820;2024-01-15T13:06:18;4.90;;;3.05;;
11191;SDS011;5652;48.406;10.820;2024-01-15T13:08:45;3.35;;;2.35;;
11191;SDS011;5652;48.406;10.820;2024-01-15T13:11:12;4.82;;;2.85;;
11191;SDS011;5652;48.406;10.820;2024-01-15T13:13:39;4.55;;;2.83;;
11191;SDS011;5652;48.406;10.820;2024-01-15T13:16:06;4.43;;;3.00;;
11191;SDS011;5652;48.406;10.820;2024-01-15T13:18:35;5.03;;;3.35;;
11191;SDS011;5652;48.406;10.820;2024-01-15T13:21:04;3.53;;;2.78;;
11191;SDS011;5652;48.406;10.820;2024-01-15T13:23:33;4.22;;;3.28;;
11191;SDS011;5652;48.406;10.820;2024-01-15T13:26:03;3.53;;;2.90;;
11191;SDS011;5652;48.406;10.820;2024-01-15T13:28:35;4.85;;;3.40;;
11191;SDS011;5652;48.406;10.820;2024-01-15T13:31:05;3.60;;;3.00;;
11191;SDS011;5652;48.406;10.820;2024-01-15T13:33:36;4.03;;;3.00;;
11191;SDS011;5652;48.406;10.820;2024-01-15T13:36:03;4.93;;;3.10;;
11191;SDS011;5652;48.406;10.820;2024-01-15T13:38:33;4.75;;;3.28;;
11191;SDS011;5652;48.406;10.820;2024-01-15T13:41:01;4.93;;;3.00;;
11191;SDS011;5652;48.406;10.820;2024-01-15T13:43:29;4.53;;;3.13;;
11191;SDS011;5652;48.406;10.820;2024-01-15T13:45:56;5.38;;;3.53;;
11191;SDS011;5652;48.406;10.820;2024-01-15T13:48:23;4.57;;;3.20;;
11191;SDS011;5652;48.406;10.820;2024-01-15T13:50:52;4.97;;;3.55;;
11191;SDS011;5652;48.406;10.820;2024-01-15T13:53:20;5.05;;;3.47;;
11191;SDS011;5652;48.406;10.820;2024-01-15T13:55:47;5.40;;;3.90;;
11191;SDS011;5652;48.406;10.820;2024-01-15T13:58:14;5.32;;;3.65;;
11191;SDS011;5652;48.406;10.820;2024-01-15T14:00:43;5.93;;;3.55;;
11191;SDS011;5652;48.406;10.820;2024-01-15T14:03:10;6.03;;;4.17;;
11191;SDS011;5652;48.406;10.820;2024-01-15T14:05:37;5.90;;;4.10;;
11191;SDS011;5652;48.406;10.820;2024-01-15T14:08:06;6.22;;;4.22;;
11191;SDS011;5652;48.406;10.820;2024-01-15T14:10:34;7.25;;;4.18;;
11191;SDS011;5652;48.406;10.820;2024-01-15T14:13:01;6.65;;;4.30;;
11191;SDS011;5652;48.406;10.820;2024-01-15T14:15:28;6.27;;;4.00;;
11191;SDS011;5652;48.406;10.820;2024-01-15T14:17:55;6.78;;;4.55;;
11191;SDS011;5652;48.406;10.820;2024-01-15T14:20:24;6.10;;;4.00;;
11191;SDS011;5652;48.406;10.820;2024-01-15T14:22:52;7.55;;;4.60;;
11191;SDS011;5652;48.406;10.820;2024-01-15T14:25:20;6.47;;;4.85;;
11191;SDS011;5652;48.406;10.820;2024-01-15T14:27:49;6.85;;;5.00;;
11191;SDS011;5652;48.406;10.820;2024-01-15T14:30:16;7.45;;;5.15;;
11191;SDS011;5652;48.406;10.820;2024-01-15T14:32:46;7.55;;;4.88;;
11191;SDS011;5652;48.406;10.820;2024-01-15T14:35:14;7.25;;;5.00;;
11191;SDS011;5652;48.406;10.820;2024-01-15T14:37:41;8.63;;;5.80;;
11191;SDS011;5652;48.406;10.820;2024-01-15T14:40:08;8.00;;;5.38;;
11191;SDS011;5652;48.406;10.820;2024-01-15T14:42:39;9.35;;;6.10;;
11191;SDS011;5652;48.406;10.820;2024-01-15T14:45:07;9.43;;;6.40;;